Hovedside
METAR-TAF:

METAR-TAF

Lufthavner :

Joensuu lufthavn

Joensuu, Finland

breddegrad: 62-40N, lengdegrad: 029-38E, høyde over havet: 119 m

Gjeldene værobservasjon

Denne rapporten ble laget for 35 minutter siden, klokken 04:20 UTC
Vind 4 kt fra Sør, skiftende mellom Sørøst og Sør-sørvest
Temperatur 8°C
Luftfuktighet 100%
Trykk 1011 hPa
Sikt 10 km eller mer
ingen skyer under 1500 m og ingen bygeskyer

METAR: EFJO 160420Z AUTO 17004KT 130V200 CAVOK 08/08 Q1011

Tid: 07:55 (04:55 UTC)

Varsel

Denne rapporten ble laget for 2 timer og 19 minutter siden, klokken 02:36 UTC
Varsel gyldig fra 16. klokken 03 UTC til 16. klokken 07 UTC
Vind 5 kt fra Sør
Sikt 10 km eller mer
ingen skyer under 1500 m og ingen bygeskyer
Blir
fra 16. klokken 06 UTC til 16. klokken 07 UTC
Brutte skyer i en høyde av 800 ft

TAF: EFJO 160236Z 1603/1607 19005KT CAVOK BECMG 1606/1607 BKN008

Værobservasjoner og værvarsel for over 4000 flyplasser (METAR- og TAF-rapporter).

Tilgjengelige stasjoner er representert av de røde og gule prikkene på kartet.

Hold musepekeren over prikken for å se navnet på stasjonen.

Klikk så for å se værobservasjoner og -varsler.

For å forandre kartet kan du klikke på den grønne knappen med svart kryss for å zoome inn, på den grønne knappen med strek for å zoome ut, eller på de grønne pilene for å se tilstøtende kart.


METAR-TAF: